createdAt,value
2018-07-12T00:02:14.862Z,92.30
2018-07-12T00:04:42.162Z,92.30
2018-07-12T00:07:09.463Z,92.30
2018-07-12T00:09:36.801Z,92.20
2018-07-12T00:12:04.112Z,92.20
2018-07-12T00:14:31.419Z,92.00
2018-07-12T00:16:58.735Z,91.80
2018-07-12T00:19:26.063Z,91.50
2018-07-12T00:21:53.371Z,91.50
2018-07-12T00:24:20.675Z,91.50
2018-07-12T00:26:47.987Z,91.60
2018-07-12T00:29:16.055Z,91.60
2018-07-12T00:31:43.374Z,91.60
2018-07-12T00:34:10.958Z,91.50
2018-07-12T00:36:38.263Z,91.70
2018-07-12T00:39:06.418Z,91.40
2018-07-12T00:41:33.722Z,91.30
2018-07-12T00:44:01.352Z,91.40
2018-07-12T00:46:28.913Z,91.30
2018-07-12T00:48:56.228Z,91.30
2018-07-12T00:51:23.548Z,91.20
2018-07-12T00:53:50.863Z,91.20
2018-07-12T00:56:18.201Z,91.30
2018-07-12T00:58:45.516Z,91.30
2018-07-12T01:01:12.819Z,91.20
2018-07-12T01:03:40.117Z,91.10
2018-07-12T01:06:07.437Z,91.00
2018-07-12T01:08:34.749Z,91.00
2018-07-12T01:11:02.046Z,91.10
2018-07-12T01:13:29.358Z,91.00
2018-07-12T01:15:56.658Z,91.10
2018-07-12T01:18:23.965Z,91.10
2018-07-12T01:20:51.262Z,91.10
2018-07-12T01:23:18.572Z,91.10
2018-07-12T01:25:45.918Z,91.20
2018-07-12T01:28:13.234Z,91.20
2018-07-12T01:30:40.548Z,91.20
2018-07-12T01:33:07.854Z,91.20
2018-07-12T01:35:35.170Z,91.40
2018-07-12T01:38:02.728Z,91.50
2018-07-12T01:40:30.027Z,91.60
2018-07-12T01:42:57.677Z,91.70
2018-07-12T01:45:24.982Z,91.70
2018-07-12T01:47:52.286Z,91.70
2018-07-12T01:50:19.611Z,91.70
2018-07-12T01:52:46.928Z,91.80
2018-07-12T01:55:14.230Z,91.80
2018-07-12T01:57:41.553Z,91.70
2018-07-12T02:00:08.858Z,91.60
2018-07-12T02:02:36.898Z,91.60
2018-07-12T02:05:04.886Z,91.60
2018-07-12T02:07:32.184Z,91.50
2018-07-12T02:09:59.474Z,91.50
2018-07-12T02:12:26.774Z,91.50
2018-07-12T02:14:54.089Z,91.60
2018-07-12T02:17:21.408Z,91.60
2018-07-12T02:19:48.725Z,91.70
2018-07-12T02:22:16.048Z,91.70
2018-07-12T02:24:43.357Z,91.70
2018-07-12T02:27:10.657Z,91.70
2018-07-12T02:29:37.965Z,91.80
2018-07-12T02:32:05.263Z,91.80
2018-07-12T02:34:32.593Z,91.80
2018-07-12T02:36:59.910Z,91.80
2018-07-12T02:39:27.771Z,91.80
2018-07-12T02:41:55.113Z,91.80
2018-07-12T02:44:22.453Z,91.90
2018-07-12T02:46:49.750Z,91.90
2018-07-12T02:49:18.010Z,91.90
2018-07-12T02:51:46.020Z,91.90
2018-07-12T02:54:13.339Z,92.00
2018-07-12T02:56:40.656Z,92.00
2018-07-12T02:59:07.971Z,92.00
2018-07-12T03:01:35.272Z,92.00
2018-07-12T03:04:02.578Z,92.00
2018-07-12T03:06:29.872Z,92.10
2018-07-12T03:08:57.175Z,92.10
2018-07-12T03:11:24.484Z,92.10
2018-07-12T03:13:52.684Z,92.00
2018-07-12T03:16:19.994Z,92.10
2018-07-12T03:18:47.314Z,92.10
2018-07-12T03:21:14.634Z,92.10
2018-07-12T03:23:41.927Z,92.10
2018-07-12T03:26:09.433Z,92.00
2018-07-12T03:28:36.742Z,92.00
2018-07-12T03:31:04.037Z,92.10
2018-07-12T03:33:31.345Z,92.10
2018-07-12T03:35:58.649Z,92.10
2018-07-12T03:38:25.963Z,92.10
2018-07-12T03:40:54.057Z,92.10
2018-07-12T03:43:21.363Z,92.00
2018-07-12T03:45:48.669Z,92.00
2018-07-12T03:48:15.985Z,91.90
2018-07-12T03:50:43.287Z,91.90
2018-07-12T03:53:10.597Z,91.80
2018-07-12T03:55:37.895Z,91.80
2018-07-12T03:58:05.220Z,91.80
2018-07-12T04:00:32.531Z,91.80
2018-07-12T04:02:59.835Z,91.80
2018-07-12T04:05:27.149Z,91.90
2018-07-12T04:07:54.449Z,91.80
2018-07-12T04:10:21.755Z,91.90
2018-07-12T04:12:49.069Z,91.90
2018-07-12T04:15:16.382Z,91.80
2018-07-12T04:17:44.344Z,91.90
2018-07-12T04:20:11.643Z,91.90
2018-07-12T04:22:38.945Z,91.90
2018-07-12T04:25:06.237Z,92.00
2018-07-12T04:27:33.541Z,92.00
2018-07-12T04:30:01.290Z,92.00
2018-07-12T04:32:28.591Z,92.00
2018-07-12T04:34:55.890Z,92.00
2018-07-12T04:37:23.204Z,91.90
2018-07-12T04:39:50.520Z,91.90
2018-07-12T04:42:17.831Z,91.80
2018-07-12T04:44:45.142Z,91.90
2018-07-12T04:47:12.450Z,91.80
2018-07-12T04:49:39.754Z,91.70
2018-07-12T04:52:07.058Z,91.70
2018-07-12T04:54:34.366Z,91.60
2018-07-12T04:57:01.666Z,91.60
2018-07-12T04:59:28.967Z,91.60
2018-07-12T05:01:56.266Z,91.40
2018-07-12T05:04:23.562Z,91.30
2018-07-12T05:06:50.858Z,91.30
2018-07-12T05:09:18.169Z,91.30
2018-07-12T05:11:45.478Z,91.20
2018-07-12T05:14:12.779Z,91.10
2018-07-12T05:16:40.093Z,91.00
2018-07-12T05:19:07.395Z,91.10
2018-07-12T05:21:34.711Z,91.10
2018-07-12T05:24:02.029Z,91.00
2018-07-12T05:26:29.342Z,91.00
2018-07-12T05:28:56.650Z,91.10
2018-07-12T05:31:24.159Z,91.20
2018-07-12T05:33:51.471Z,91.10
2018-07-12T05:36:34.989Z,91.00
2018-07-12T05:39:05.028Z,90.80
2018-07-12T05:41:33.393Z,90.80
2018-07-12T05:44:01.800Z,90.80
2018-07-12T05:46:30.210Z,90.70
2018-07-12T05:48:58.897Z,90.60
2018-07-12T05:51:27.329Z,90.60
2018-07-12T05:53:55.853Z,90.60
2018-07-12T05:56:24.271Z,90.50
2018-07-12T05:58:52.729Z,90.40
2018-07-12T06:01:32.451Z,90.20
2018-07-12T06:04:00.849Z,90.20
2018-07-12T06:06:29.512Z,90.30
2018-07-12T06:08:57.915Z,90.30
2018-07-12T06:11:26.738Z,90.10
2018-07-12T06:13:55.176Z,90.10
2018-07-12T06:16:23.600Z,90.10
2018-07-12T06:18:52.153Z,90.10
2018-07-12T06:21:20.631Z,90.00
2018-07-12T06:23:49.310Z,90.00
2018-07-12T06:26:17.762Z,89.90
2018-07-12T06:28:48.062Z,89.00
2018-07-12T06:31:17.560Z,89.30
2018-07-12T06:33:46.287Z,89.20
2018-07-12T06:36:14.710Z,88.90
2018-07-12T06:38:43.447Z,88.60
2018-07-12T06:41:12.424Z,88.10
2018-07-12T06:43:41.361Z,87.30
2018-07-12T06:46:10.820Z,87.30
2018-07-12T06:48:39.230Z,87.50
2018-07-12T06:51:07.659Z,87.20
2018-07-12T06:53:36.074Z,86.60
2018-07-12T06:56:04.468Z,86.70
2018-07-12T06:58:33.472Z,86.80
2018-07-12T07:01:02.107Z,86.50
2018-07-12T07:03:30.502Z,86.30
2018-07-12T07:05:59.032Z,86.60
2018-07-12T07:08:28.045Z,86.60
2018-07-12T07:10:57.039Z,86.50
2018-07-12T07:13:25.441Z,86.70
2018-07-12T07:15:54.003Z,86.00
2018-07-12T07:18:22.434Z,86.00
2018-07-12T07:20:52.001Z,86.10
2018-07-12T07:23:20.411Z,85.60
2018-07-12T07:25:48.926Z,85.90
2018-07-12T07:28:17.938Z,85.70
2018-07-12T07:30:46.439Z,85.90
2018-07-12T07:33:14.914Z,85.30
2018-07-12T07:35:43.394Z,85.20
2018-07-12T07:38:12.800Z,85.10
2018-07-12T07:40:41.190Z,84.90
2018-07-12T07:43:09.661Z,84.80
2018-07-12T07:45:38.596Z,84.90
2018-07-12T07:48:07.006Z,84.20
2018-07-12T07:50:35.433Z,84.20
2018-07-12T07:53:03.860Z,83.70
2018-07-12T07:55:32.263Z,83.20
2018-07-12T07:58:00.666Z,82.80
2018-07-12T08:00:29.452Z,82.20
2018-07-12T08:02:57.849Z,81.30
2018-07-12T08:05:26.269Z,81.30
2018-07-12T08:07:54.671Z,81.60
2018-07-12T08:10:23.083Z,82.00
2018-07-12T08:12:51.503Z,81.70
2018-07-12T08:15:19.966Z,81.10
2018-07-12T08:17:48.439Z,81.10
2018-07-12T08:20:16.863Z,81.10
2018-07-12T08:22:45.275Z,81.10
2018-07-12T08:25:13.675Z,81.20
2018-07-12T08:27:53.239Z,80.90
2018-07-12T08:30:21.632Z,80.40
2018-07-12T08:32:50.459Z,80.40
2018-07-12T08:35:19.475Z,79.80
2018-07-12T08:37:47.912Z,79.50
2018-07-12T08:40:16.962Z,80.40
2018-07-12T08:42:45.396Z,79.90
2018-07-12T08:45:13.886Z,79.80
2018-07-12T08:47:42.342Z,80.40
2018-07-12T08:50:11.492Z,80.00
2018-07-12T08:52:39.901Z,79.70
2018-07-12T08:55:08.773Z,79.00
2018-07-12T08:57:37.191Z,79.20
2018-07-12T09:00:06.933Z,79.30
2018-07-12T09:02:35.884Z,79.00
2018-07-12T09:05:04.307Z,78.20
2018-07-12T09:07:32.709Z,77.80
2018-07-12T09:10:01.798Z,77.60
2018-07-12T09:12:30.235Z,77.90
2018-07-12T09:14:58.645Z,77.50
2018-07-12T09:17:27.051Z,78.20
2018-07-12T09:19:55.443Z,78.20
2018-07-12T09:22:24.321Z,76.80
2018-07-12T09:24:52.735Z,76.80
2018-07-12T09:27:21.157Z,74.90
2018-07-12T09:29:49.567Z,74.30
2018-07-12T09:32:17.985Z,73.20
2018-07-12T09:34:47.439Z,74.30
2018-07-12T09:37:15.820Z,74.20
2018-07-12T09:39:44.229Z,72.70
2018-07-12T09:42:12.690Z,71.50
2018-07-12T09:44:41.084Z,71.10
2018-07-12T09:47:09.532Z,71.30
2018-07-12T09:49:37.928Z,71.40
2018-07-12T09:52:11.560Z,72.00
2018-07-12T09:54:39.976Z,72.20
2018-07-12T09:57:19.610Z,72.20
2018-07-12T09:59:48.927Z,72.80
2018-07-12T10:02:22.538Z,71.20
2018-07-12T10:04:51.382Z,71.50
2018-07-12T10:07:25.057Z,70.30
2018-07-12T10:09:55.422Z,71.20
2018-07-12T10:14:35.236Z,69.70
2018-07-12T10:17:08.904Z,70.10
2018-07-12T10:19:37.447Z,70.30
2018-07-12T10:22:06.750Z,70.00
2018-07-12T10:24:35.160Z,70.20
2018-07-12T10:27:03.721Z,69.30
2018-07-12T10:29:32.133Z,68.40
2018-07-12T10:32:00.547Z,69.00
2018-07-12T10:34:28.969Z,70.30
2018-07-12T10:36:57.385Z,68.50
2018-07-12T10:39:25.823Z,64.80
2018-07-12T10:41:54.226Z,64.80
2018-07-12T10:44:22.686Z,65.90
2018-07-12T10:46:51.077Z,66.90
2018-07-12T10:49:19.487Z,67.30
2018-07-12T10:51:47.909Z,67.10
2018-07-12T10:54:16.321Z,66.70
2018-07-12T10:56:44.735Z,66.60
2018-07-12T10:59:13.153Z,66.10
2018-07-12T11:01:41.543Z,66.20
2018-07-12T11:04:09.991Z,66.10
2018-07-12T11:06:39.673Z,66.50
2018-07-12T11:09:09.452Z,66.20
2018-07-12T11:11:37.843Z,67.40
2018-07-12T11:14:06.901Z,66.20
2018-07-12T11:16:35.319Z,66.10
2018-07-12T11:19:03.747Z,65.40
2018-07-12T11:21:32.151Z,65.40
2018-07-12T11:24:00.572Z,64.10
2018-07-12T11:26:28.980Z,64.50
2018-07-12T11:28:57.413Z,65.60
2018-07-12T11:31:25.834Z,66.90
2018-07-12T11:33:54.658Z,63.90
2018-07-12T11:36:23.358Z,64.10
2018-07-12T11:38:52.218Z,63.00
2018-07-12T11:41:20.640Z,62.90
2018-07-12T11:43:49.048Z,62.10
2018-07-12T11:46:17.448Z,62.90
2018-07-12T11:48:46.613Z,62.20
2018-07-12T11:51:15.422Z,62.10
2018-07-12T11:53:43.832Z,62.40
2018-07-12T11:56:12.245Z,62.40
2018-07-12T11:58:40.656Z,62.50
2018-07-12T12:01:09.057Z,62.30
2018-07-12T12:03:37.507Z,62.40
2018-07-12T12:06:06.016Z,61.10
2018-07-12T12:08:34.446Z,59.90
2018-07-12T12:11:20.538Z,60.90
2018-07-12T12:13:56.840Z,61.50
2018-07-12T12:16:25.257Z,59.90
2018-07-12T12:18:53.654Z,59.50
2018-07-12T12:21:22.057Z,61.10
2018-07-12T12:23:51.115Z,59.00
2018-07-12T12:26:19.825Z,59.40
2018-07-12T12:28:48.245Z,59.50
2018-07-12T12:31:16.676Z,59.00
2018-07-12T12:33:50.425Z,58.80
2018-07-12T12:36:18.845Z,59.60
2018-07-12T12:38:47.257Z,59.20
2018-07-12T12:41:15.675Z,58.80
2018-07-12T12:43:45.131Z,58.50
2018-07-12T12:46:14.127Z,58.30
2018-07-12T12:48:42.995Z,58.10
2018-07-12T12:51:11.406Z,58.20
2018-07-12T12:53:39.807Z,57.30
2018-07-12T12:56:08.207Z,57.30
2018-07-12T12:58:36.609Z,56.20
2018-07-12T13:01:05.012Z,57.00
2018-07-12T13:03:33.411Z,57.10
2018-07-12T13:06:01.854Z,57.50
2018-07-12T13:08:35.142Z,58.80
2018-07-12T13:11:03.775Z,57.80
2018-07-12T13:13:33.598Z,57.00
2018-07-12T13:16:06.670Z,57.00
2018-07-12T13:18:36.332Z,56.90
2018-07-12T13:21:06.730Z,57.00
2018-07-12T13:23:35.350Z,55.90
2018-07-12T13:26:05.837Z,55.80
2018-07-12T13:28:37.380Z,56.20
2018-07-12T13:31:05.922Z,56.80
2018-07-12T13:33:34.340Z,56.90
2018-07-12T13:36:02.763Z,56.20
2018-07-12T13:38:31.186Z,54.90
2018-07-12T13:40:59.639Z,54.90
2018-07-12T13:43:28.029Z,55.20
2018-07-12T13:45:56.802Z,56.10
2018-07-12T13:48:25.213Z,55.00
2018-07-12T13:50:53.629Z,54.90
2018-07-12T13:53:22.027Z,54.00
2018-07-12T13:55:50.547Z,54.50
2018-07-12T13:58:19.470Z,54.80
2018-07-12T14:00:47.867Z,55.80
2018-07-12T14:03:16.420Z,55.60
2018-07-12T14:05:44.903Z,54.70
2018-07-12T14:08:13.403Z,54.30
2018-07-12T14:10:41.831Z,54.20
2018-07-12T14:13:10.236Z,55.30
2018-07-12T14:15:38.686Z,54.70
2018-07-12T14:18:07.091Z,54.40
2018-07-12T14:20:35.485Z,53.50
2018-07-12T14:23:04.283Z,53.50
2018-07-12T14:25:32.699Z,54.40
2018-07-12T14:28:01.183Z,53.70
2018-07-12T14:30:29.620Z,52.50
2018-07-12T14:32:58.034Z,50.20
2018-07-12T14:35:26.501Z,51.10
2018-07-12T14:37:54.901Z,51.50
2018-07-12T14:40:23.339Z,52.00
2018-07-12T14:42:51.736Z,51.70
2018-07-12T14:45:20.135Z,51.00
2018-07-12T14:47:48.530Z,50.50
2018-07-12T14:50:16.929Z,50.50
2018-07-12T14:52:45.363Z,50.80
2018-07-12T14:55:13.786Z,50.20
2018-07-12T14:57:42.278Z,49.50
2018-07-12T15:00:10.876Z,50.20
2018-07-12T15:02:39.547Z,50.30
2018-07-12T15:05:07.940Z,50.40
2018-07-12T15:07:36.366Z,50.80
2018-07-12T15:10:04.770Z,50.40
2018-07-12T15:12:33.190Z,51.30
2018-07-12T15:15:01.675Z,50.90
2018-07-12T15:17:30.200Z,50.20
2018-07-12T15:19:58.604Z,50.30
2018-07-12T15:22:27.016Z,50.80
2018-07-12T15:24:55.459Z,48.40
2018-07-12T15:27:23.868Z,49.10
2018-07-12T15:29:52.286Z,49.50
2018-07-12T15:34:48.769Z,50.20
2018-07-12T15:37:17.167Z,49.90
2018-07-12T15:39:45.560Z,50.00
2018-07-12T15:42:14.830Z,50.30
2018-07-12T15:44:43.416Z,49.90
2018-07-12T15:47:11.806Z,50.20
2018-07-12T15:49:40.210Z,49.80
2018-07-12T15:52:08.646Z,50.30
2018-07-12T15:54:37.064Z,50.20
2018-07-12T15:57:05.677Z,50.70
2018-07-12T15:59:34.080Z,50.80
2018-07-12T16:02:02.503Z,51.60
2018-07-12T16:04:30.949Z,50.90
2018-07-12T16:06:59.433Z,50.10
2018-07-12T16:09:27.827Z,50.20
2018-07-12T16:11:56.227Z,51.10
2018-07-12T16:14:24.633Z,51.00
2018-07-12T16:16:53.261Z,51.10
2018-07-12T16:19:21.659Z,50.70
2018-07-12T16:21:50.065Z,50.40
2018-07-12T16:24:18.505Z,49.80
2018-07-12T16:26:46.916Z,50.20
2018-07-12T16:29:15.339Z,50.20
2018-07-12T16:34:11.894Z,49.90
2018-07-12T16:36:40.281Z,50.40
2018-07-12T16:39:09.371Z,50.40
2018-07-12T16:41:37.781Z,50.40
2018-07-12T16:44:06.233Z,49.70
2018-07-12T16:46:34.650Z,49.80
2018-07-12T16:49:03.061Z,49.70
2018-07-12T16:51:31.452Z,49.20
2018-07-12T16:53:59.925Z,49.30
2018-07-12T16:56:28.367Z,50.20
2018-07-12T16:58:56.761Z,50.40
2018-07-12T17:01:25.179Z,50.40
2018-07-12T17:03:53.678Z,49.60
2018-07-12T17:06:22.386Z,50.00
2018-07-12T17:08:50.810Z,49.40
2018-07-12T17:11:19.272Z,49.20
2018-07-12T17:13:47.948Z,49.00
2018-07-12T17:16:16.370Z,49.10
2018-07-12T17:18:45.131Z,48.80
2018-07-12T17:21:13.546Z,49.00
2018-07-12T17:23:41.979Z,48.80
2018-07-12T17:26:10.402Z,48.80
2018-07-12T17:28:38.818Z,48.90
2018-07-12T17:31:07.217Z,49.10
2018-07-12T17:36:03.765Z,49.10
2018-07-12T17:38:32.150Z,48.60
2018-07-12T17:41:00.624Z,48.90
2018-07-12T17:43:29.009Z,49.10
2018-07-12T17:45:57.448Z,49.90
2018-07-12T17:48:26.254Z,50.30
2018-07-12T17:50:56.171Z,50.70
2018-07-12T17:53:24.578Z,50.70
2018-07-12T17:55:53.060Z,50.80
2018-07-12T17:58:21.505Z,50.70
2018-07-12T18:00:50.223Z,51.30
2018-07-12T18:03:18.711Z,51.30
2018-07-12T18:05:47.183Z,51.00
2018-07-12T18:08:15.661Z,50.80
2018-07-12T18:10:44.075Z,51.10
2018-07-12T18:13:12.515Z,51.20
2018-07-12T18:15:40.992Z,51.30
2018-07-12T18:18:09.434Z,50.80
2018-07-12T18:20:37.844Z,50.30
2018-07-12T18:23:06.387Z,50.60
2018-07-12T18:25:34.843Z,50.70
2018-07-12T18:28:03.324Z,51.50
2018-07-12T18:30:31.740Z,51.60
2018-07-12T18:33:00.462Z,51.70
2018-07-12T18:35:28.904Z,51.20
2018-07-12T18:37:57.381Z,51.90
2018-07-12T18:40:25.895Z,51.90
2018-07-12T18:42:55.184Z,52.00
2018-07-12T18:47:51.796Z,51.70
2018-07-12T18:50:20.230Z,52.20
2018-07-12T18:52:48.652Z,52.70
2018-07-12T18:55:17.064Z,53.10
2018-07-12T18:57:45.515Z,53.50
2018-07-12T19:00:13.946Z,54.10
2018-07-12T19:02:42.464Z,54.30
2018-07-12T19:05:10.834Z,54.60
2018-07-12T19:07:39.284Z,55.10
2018-07-12T19:10:07.741Z,56.40
2018-07-12T19:12:36.166Z,57.80
2018-07-12T19:15:04.814Z,59.20
2018-07-12T19:17:33.126Z,61.00
2018-07-12T19:22:29.655Z,64.20
2018-07-12T19:24:58.055Z,65.60
2018-07-12T19:27:26.558Z,66.70
2018-07-12T19:29:55.184Z,68.00
2018-07-12T19:32:24.007Z,68.90
2018-07-12T19:34:52.741Z,69.60
2018-07-12T19:37:21.551Z,70.60
2018-07-12T19:39:50.136Z,71.60
2018-07-12T19:42:18.567Z,72.30
2018-07-12T19:44:47.027Z,73.00
2018-07-12T19:47:15.706Z,73.70
2018-07-12T19:49:44.372Z,74.30
2018-07-12T19:52:13.049Z,75.00
2018-07-12T19:54:41.583Z,75.50
2018-07-12T19:57:09.987Z,76.20
2018-07-12T19:59:38.401Z,76.50
2018-07-12T20:02:07.769Z,77.10
2018-07-12T20:04:36.233Z,77.40
2018-07-12T20:07:05.350Z,78.00
2018-07-12T20:09:34.529Z,78.30
2018-07-12T20:12:02.974Z,78.80
2018-07-12T20:14:31.379Z,79.00
2018-07-12T20:16:59.784Z,79.40
2018-07-12T20:19:28.217Z,79.60
2018-07-12T20:21:56.606Z,79.60
2018-07-12T20:24:25.010Z,79.80
2018-07-12T20:26:53.433Z,79.90
2018-07-12T20:29:21.850Z,79.80
2018-07-12T20:31:50.251Z,79.90
2018-07-12T20:34:18.659Z,79.90
2018-07-12T20:36:47.071Z,79.90
2018-07-12T20:39:15.720Z,80.30
2018-07-12T20:41:44.131Z,80.80
2018-07-12T20:44:12.537Z,80.80
2018-07-12T20:46:40.984Z,80.80
2018-07-12T20:49:09.526Z,80.90
2018-07-12T20:51:37.956Z,81.00
2018-07-12T20:54:06.369Z,81.10
2018-07-12T20:56:34.819Z,81.40
2018-07-12T20:59:03.235Z,81.70
2018-07-12T21:01:31.646Z,82.00
2018-07-12T21:04:00.383Z,82.30
2018-07-12T21:06:28.884Z,82.50
2018-07-12T21:08:57.383Z,82.90
2018-07-12T21:11:25.840Z,83.00
2018-07-12T21:13:55.071Z,83.10
2018-07-12T21:16:23.657Z,83.20
2018-07-12T21:21:20.386Z,83.50
2018-07-12T21:23:49.934Z,83.70
2018-07-12T21:26:18.396Z,83.70
2018-07-12T21:28:48.209Z,83.80
2018-07-12T21:31:16.930Z,84.10
2018-07-12T21:33:45.417Z,84.20
2018-07-12T21:36:14.278Z,84.30
2018-07-12T21:38:42.761Z,84.30
2018-07-12T21:41:11.331Z,84.50
2018-07-12T21:43:39.826Z,84.80
2018-07-12T21:46:08.318Z,85.00
2018-07-12T21:48:36.813Z,85.10
2018-07-12T21:51:31.386Z,85.00
2018-07-12T21:54:03.412Z,85.60
2018-07-12T21:56:47.479Z,85.90
2018-07-12T21:59:21.498Z,86.10
2018-07-12T22:01:49.912Z,86.50
2018-07-12T22:04:18.333Z,86.70
2018-07-12T22:07:29.999Z,86.80
2018-07-12T22:09:58.471Z,86.90
2018-07-12T22:12:26.898Z,86.90
2018-07-12T22:14:55.310Z,87.20
2018-07-12T22:17:25.525Z,87.40
2018-07-12T22:22:25.734Z,87.60
2018-07-12T22:25:00.481Z,87.90
2018-07-12T22:27:28.928Z,87.80
2018-07-12T22:29:57.340Z,88.10
2018-07-12T22:32:25.758Z,88.20
2018-07-12T22:34:55.282Z,88.30
2018-07-12T22:37:28.039Z,88.60
2018-07-12T22:39:56.666Z,88.70
2018-07-12T22:42:25.068Z,88.70
2018-07-12T22:44:53.482Z,88.90
2018-07-12T22:47:21.978Z,89.10
2018-07-12T22:49:50.413Z,89.00
2018-07-12T22:52:21.178Z,89.00
2018-07-12T22:54:50.190Z,89.20
2018-07-12T22:57:18.732Z,89.30
2018-07-12T22:59:47.614Z,89.50
2018-07-12T23:02:16.108Z,89.50
2018-07-12T23:04:44.542Z,89.50
2018-07-12T23:07:12.965Z,89.50
2018-07-12T23:09:41.414Z,89.60
2018-07-12T23:12:09.836Z,89.70
2018-07-12T23:14:38.340Z,89.70
2018-07-12T23:17:06.776Z,89.70
2018-07-12T23:19:35.474Z,89.90
2018-07-12T23:22:03.911Z,90.00
2018-07-12T23:24:32.953Z,90.00
2018-07-12T23:27:01.967Z,90.30
2018-07-12T23:29:30.381Z,90.00
2018-07-12T23:31:58.819Z,90.10
2018-07-12T23:34:27.242Z,90.20
2018-07-12T23:36:55.695Z,90.20
2018-07-12T23:39:24.450Z,90.20
2018-07-12T23:41:52.855Z,90.20
2018-07-12T23:44:21.342Z,90.30
2018-07-12T23:46:49.869Z,90.30
2018-07-12T23:49:18.295Z,90.30
2018-07-12T23:51:46.737Z,90.40
2018-07-12T23:54:15.175Z,90.40
2018-07-12T23:56:43.582Z,90.40
2018-07-12T23:59:12.020Z,90.50
